Terminal Aerodrome Forecast
Issued by NWS

Home | Current Version | Previous Version | Graphics & Text | Print | Product List | Glossary On
Versions: 1 2 3 4 5 6 7 8 9 10 11 12 13 14 15
000
FTUS43 KOAX 211724
TAFCDR
TAF
KCDR 211724Z 2118/2218 30012KT P6SM BKN090
     FM212200 33013KT P6SM VCSH BKN100
     FM220400 27007KT P6SM SKC=

USA.gov is the U.S. government's official web portal to all federal, state and local government web resources and services.